00:31
Airports
History
Links
Donate
Help keep this website running!
PayPal
Bitcoin
This page is community maintained. The information is intended for PC simulator navigation or reference.
Always use approved charts for navigation.
YCVG
Calvin Grove
Calvin Grove (YCVG)
Virginia, South Australia, Australia (5120)
4
Lat/Lng:34° 41' 32.19" S / 138° 34' 51.35" E
-34.692275 / 138.58093
Elevation:46'ft / 14mMSL
ID / ICAO:YCVG
Runways:1
Longest:02-20
692m / 2,270ft
Nearby Weather00:00 GMT 2017-09-25
Nearby weather at YPAD, Adelaide Intl located 18.1 nautical miles from YCVG
Altimeter: 29.94
Visibility: 6.2 statute miles
Wind: 10 knots (from 270°)
Temp: 15°c / 59°f
Humidity: 72.0%

METAR: YPAD 250000Z 27010KT 9999 FEW019 15/10 Q1014 NOSIG

(Powered by phpweather)
Airport Radio Frequencies
CTAF: 126.7
Runway 02 / 20
Dimensions:692 x 29.9m 2270' x 98'ft
Surface:
Runway 02 [A]Runway 20 [B]
Heading:027°TH 207°TH
Lat:
Lng:
34° 41' 42.12"S
138° 34' 44.98"E
34° 41' 22.26"S
138° 34' 57.72"E
User Notes and Comments
34° 41' 32.19" S / 138° 34' 51.35" E
Distance To
Airport ID:
Nearby Airports
(C) Edinburgh 2.5 NM
YPED ESE 111°
(C) Adelaide Parafield 7.9 NM
YPPF SSE 158°
4 Gawler 10.2 NM
YGAW NE 50°
4 LOWER LIGHT 15.0 NM
YLLT NW 324°
4 MALLALA 16.7 NM
YLLL N 349°
(C) Adelaide Intl 18.1 NM
YPAD ( WX ) S 189°
4 SCOTT CREEK 28.0 NM
YSCC S 170°
VFR Chart
Flight Planning at SkyVector.com